Time;durP1;ratioP1;P1;durP2;ratioP2;P2;SDS_P1;SDS_P2;PMS_P1;PMS_P2;Temp;Humidity;BMP_temperature;BMP_pressure;BME280_temperature;BME280_humidity;BME280_pressure;Samples;Min_cycle;Max_cycle;Signal;HPM_P1;HPM_P2
2021/12/25 00:00:55;;;;;;;6.70;4.15;;;;;;;;;;5033584;28;20029;-37
2021/12/25 00:03:21;;;;;;;5.57;3.90;;;;;;;;;;5033689;28;20490;-36
2021/12/25 00:05:51;;;;;;;3.45;3.10;;;;;;;;;;5033723;28;20100;-36
2021/12/25 00:08:24;;;;;;;7.78;4.18;;;;;;;;;;5033695;28;20033;-37
2021/12/25 00:10:50;;;;;;;4.65;3.45;;;;;;;;;;5033796;28;20021;-36
2021/12/25 00:13:18;;;;;;;4.00;2.97;;;;;;;;;;5033322;28;20030;-37
2021/12/25 00:15:44;;;;;;;5.18;3.70;;;;;;;;;;5033548;28;20032;-37
2021/12/25 00:18:10;;;;;;;3.97;3.30;;;;;;;;;;5033799;28;20112;-35
2021/12/25 00:20:36;;;;;;;5.22;3.85;;;;;;;;;;5033871;28;20083;-36
2021/12/25 00:23:04;;;;;;;6.63;3.92;;;;;;;;;;5033474;28;20025;-38
2021/12/25 00:25:33;;;;;;;6.40;3.63;;;;;;;;;;5033301;28;20029;-36
2021/12/25 00:28:22;;;;;;;5.60;3.88;;;;;;;;;;5033546;28;20159;-37
2021/12/25 00:36:03;;;;;;;6.47;4.00;;;;;;;;;;5033532;28;20367;-36
2021/12/25 00:38:29;;;;;;;7.75;4.18;;;;;;;;;;5033346;28;20025;-37
2021/12/25 00:40:54;;;;;;;7.85;4.43;;;;;;;;;;5033391;28;20044;-36
2021/12/25 00:43:20;;;;;;;4.45;3.70;;;;;;;;;;5033141;28;20519;-37
2021/12/25 00:45:45;;;;;;;4.47;3.72;;;;;;;;;;5033547;28;20026;-37
2021/12/25 00:48:11;;;;;;;5.25;4.10;;;;;;;;;;5033131;28;20351;-36
2021/12/25 00:50:36;;;;;;;5.60;4.15;;;;;;;;;;5033458;28;20025;-38
2021/12/25 00:53:02;;;;;;;5.22;4.03;;;;;;;;;;5032984;28;20374;-36
2021/12/25 00:55:27;;;;;;;7.53;4.70;;;;;;;;;;5032932;28;20036;-38
2021/12/25 00:57:53;;;;;;;6.13;4.25;;;;;;;;;;5032969;28;20025;-37
2021/12/25 01:00:19;;;;;;;7.72;4.75;;;;;;;;;;5032880;28;20061;-37
2021/12/25 01:02:47;;;;;;;7.45;5.18;;;;;;;;;;5032757;28;20026;-36
2021/12/25 01:05:14;;;;;;;7.28;4.45;;;;;;;;;;5033025;28;20029;-36
2021/12/25 01:07:41;;;;;;;6.78;4.50;;;;;;;;;;5032586;28;20069;-37
2021/12/25 01:10:12;;;;;;;8.40;3.90;;;;;;;;;;5032900;28;20033;-36
2021/12/25 01:12:55;;;;;;;5.60;3.22;;;;;;;;;;5033328;28;20510;-36
2021/12/25 01:15:27;;;;;;;5.43;3.70;;;;;;;;;;5032349;28;20094;-37
2021/12/25 01:18:39;;;;;;;4.75;3.70;;;;;;;;;;5032950;28;20040;-37
2021/12/25 01:31:30;;;;;;;3.58;2.97;;;;;;;;;;5052344;28;20041;-36
2021/12/25 01:39:00;;;;;;;3.17;2.78;;;;;;;;;;5052258;28;20057;-36
2021/12/25 01:41:59;;;;;;;4.85;3.22;;;;;;;;;;5052157;28;20029;-36
2021/12/25 01:49:34;;;;;;;6.03;3.58;;;;;;;;;;5052280;28;20060;-36
2021/12/25 01:52:00;;;;;;;5.40;3.40;;;;;;;;;;5050921;28;20029;-35
2021/12/25 01:54:26;;;;;;;3.13;2.83;;;;;;;;;;5051613;28;20021;-35
2021/12/25 01:56:51;;;;;;;6.15;3.20;;;;;;;;;;5052420;28;20429;-35
2021/12/25 01:59:17;;;;;;;4.80;2.85;;;;;;;;;;5051702;28;20538;-35
2021/12/25 02:01:43;;;;;;;4.45;2.80;;;;;;;;;;5051830;28;20707;-35
2021/12/25 02:04:10;;;;;;;4.93;3.40;;;;;;;;;;5052169;28;20021;-36
2021/12/25 02:06:35;;;;;;;3.63;2.88;;;;;;;;;;5052028;28;20078;-36
2021/12/25 02:09:02;;;;;;;5.30;2.83;;;;;;;;;;5052303;28;20028;-37
2021/12/25 02:11:28;;;;;;;4.68;3.20;;;;;;;;;;5052263;28;20430;-37
2021/12/25 02:13:54;;;;;;;5.00;3.53;;;;;;;;;;5051948;28;20045;-37
2021/12/25 02:16:23;;;;;;;5.63;3.75;;;;;;;;;;5052210;28;20041;-37
2021/12/25 02:21:31;;;;;;;6.88;4.07;;;;;;;;;;5055639;28;20392;-37
2021/12/25 02:23:57;;;;;;;4.68;3.33;;;;;;;;;;5055889;28;20530;-38
2021/12/25 02:26:24;;;;;;;5.55;3.75;;;;;;;;;;5055867;28;20032;-38
2021/12/25 02:28:50;;;;;;;6.50;4.38;;;;;;;;;;5055818;28;20051;-37
2021/12/25 02:31:17;;;;;;;4.88;3.45;;;;;;;;;;5055755;28;20409;-36
2021/12/25 02:33:43;;;;;;;8.57;4.07;;;;;;;;;;5055326;28;20029;-38
2021/12/25 02:36:12;;;;;;;6.60;4.45;;;;;;;;;;5055578;28;20032;-38
2021/12/25 02:38:38;;;;;;;7.97;4.53;;;;;;;;;;5055237;28;20037;-36
2021/12/25 02:41:05;;;;;;;7.22;4.70;;;;;;;;;;5055373;28;20033;-35
2021/12/25 02:43:31;;;;;;;6.35;4.15;;;;;;;;;;5055130;28;20064;-36
2021/12/25 02:46:01;;;;;;;6.65;4.40;;;;;;;;;;5055032;28;20032;-37
2021/12/25 02:48:27;;;;;;;7.00;4.68;;;;;;;;;;5055398;28;20061;-35
2021/12/25 02:50:53;;;;;;;7.47;4.93;;;;;;;;;;5037207;28;20464;-36
2021/12/25 02:53:18;;;;;;;7.57;5.13;;;;;;;;;;5054897;28;20056;-35
2021/12/25 02:55:46;;;;;;;8.50;5.40;;;;;;;;;;5054927;28;20025;-35
2021/12/25 02:58:12;;;;;;;8.68;5.05;;;;;;;;;;5055157;28;20432;-35
2021/12/25 03:00:53;;;;;;;7.57;4.60;;;;;;;;;;5055066;28;20032;-36
2021/12/25 03:03:19;;;;;;;8.27;5.07;;;;;;;;;;5054910;28;20462;-35
2021/12/25 03:05:45;;;;;;;9.65;5.45;;;;;;;;;;5054669;28;20362;-36
2021/12/25 03:08:12;;;;;;;10.65;4.82;;;;;;;;;;5054646;28;20040;-36
2021/12/25 03:10:39;;;;;;;7.65;4.88;;;;;;;;;;5054671;28;20025;-35
2021/12/25 03:15:46;;;;;;;8.25;5.13;;;;;;;;;;5054417;28;20045;-36
2021/12/25 03:18:25;;;;;;;7.32;5.18;;;;;;;;;;5054759;28;20368;-36
2021/12/25 03:20:55;;;;;;;7.45;5.38;;;;;;;;;;5054697;28;20029;-37
2021/12/25 03:23:22;;;;;;;8.57;5.47;;;;;;;;;;5054411;28;20060;-36
2021/12/25 03:25:49;;;;;;;7.57;4.90;;;;;;;;;;5054431;28;20465;-37
2021/12/25 03:28:17;;;;;;;7.72;5.07;;;;;;;;;;5054423;28;20052;-37
2021/12/25 03:30:43;;;;;;;8.52;5.47;;;;;;;;;;5053937;28;20504;-36
2021/12/25 03:33:20;;;;;;;6.95;4.90;;;;;;;;;;5054305;28;20120;-38
2021/12/25 03:35:47;;;;;;;8.45;5.13;;;;;;;;;;5054349;28;20032;-37
2021/12/25 03:38:15;;;;;;;9.20;5.47;;;;;;;;;;5054506;28;20481;-37
2021/12/25 03:40:42;;;;;;;8.60;5.38;;;;;;;;;;5036523;28;20420;-35
2021/12/25 03:43:08;;;;;;;8.70;5.50;;;;;;;;;;5054044;28;20029;-37
2021/12/25 03:45:35;;;;;;;7.47;5.35;;;;;;;;;;5054395;28;20025;-36
2021/12/25 03:48:11;;;;;;;9.30;5.93;;;;;;;;;;5053999;28;20117;-36
2021/12/25 03:58:32;;;;;;;10.63;6.35;;;;;;;;;;5054158;28;20036;-37
2021/12/25 04:01:14;;;;;;;8.70;6.05;;;;;;;;;;5053633;28;20021;-37
2021/12/25 04:03:50;;;;;;;9.13;5.63;;;;;;;;;;5054016;28;20446;-36
2021/12/25 04:06:15;;;;;;;10.25;5.95;;;;;;;;;;5053927;28;20029;-36
2021/12/25 04:08:44;;;;;;;8.00;5.35;;;;;;;;;;5053571;28;20469;-37
2021/12/25 04:11:14;;;;;;;8.00;5.15;;;;;;;;;;5053591;28;20021;-37
2021/12/25 04:13:40;;;;;;;8.60;5.40;;;;;;;;;;5053357;28;20036;-37
2021/12/25 04:16:06;;;;;;;11.00;5.68;;;;;;;;;;5053734;28;20021;-36
2021/12/25 04:18:32;;;;;;;6.72;4.65;;;;;;;;;;5053329;28;20044;-37
2021/12/25 04:20:57;;;;;;;10.20;5.40;;;;;;;;;;5053513;28;20112;-36
2021/12/25 04:23:26;;;;;;;7.57;4.70;;;;;;;;;;5053492;28;20479;-36
2021/12/25 04:25:54;;;;;;;6.15;4.32;;;;;;;;;;5053464;28;20056;-36
2021/12/25 04:28:37;;;;;;;6.35;4.18;;;;;;;;;;5053389;28;20025;-36
2021/12/25 04:31:23;;;;;;;7.15;4.40;;;;;;;;;;5053403;28;20033;-36
2021/12/25 05:04:03;;;;;;;6.75;4.68;;;;;;;;;;5052970;28;20071;-37
2021/12/25 05:06:28;;;;;;;6.97;4.50;;;;;;;;;;5052874;28;20024;-36
2021/12/25 05:08:54;;;;;;;6.72;4.78;;;;;;;;;;5052510;28;20595;-35
2021/12/25 05:11:21;;;;;;;9.13;5.50;;;;;;;;;;5052362;28;20056;-36
2021/12/25 05:13:49;;;;;;;6.68;4.75;;;;;;;;;;5052467;28;20104;-36
2021/12/25 05:16:17;;;;;;;5.32;3.85;;;;;;;;;;5052353;28;20029;-37
2021/12/25 05:18:42;;;;;;;6.13;4.45;;;;;;;;;;5052661;28;20036;-36
2021/12/25 05:21:08;;;;;;;7.75;5.00;;;;;;;;;;5052802;28;20381;-37
2021/12/25 05:23:37;;;;;;;9.43;5.88;;;;;;;;;;5052981;28;20052;-37
2021/12/25 05:26:03;;;;;;;7.10;5.32;;;;;;;;;;5053224;28;20021;-36
2021/12/25 05:28:38;;;;;;;10.75;5.70;;;;;;;;;;5052905;28;20028;-36
2021/12/25 05:31:04;;;;;;;9.35;4.80;;;;;;;;;;5052908;28;20100;-36
2021/12/25 05:33:30;;;;;;;8.23;5.07;;;;;;;;;;5052830;28;20052;-37
2021/12/25 05:35:55;;;;;;;9.45;4.85;;;;;;;;;;5052780;28;20029;-36
2021/12/25 05:38:22;;;;;;;9.73;5.50;;;;;;;;;;5052882;28;20027;-36
2021/12/25 05:40:49;;;;;;;6.18;4.95;;;;;;;;;;5052615;28;20056;-37
2021/12/25 05:43:15;;;;;;;7.97;4.57;;;;;;;;;;5052793;28;20071;-38
2021/12/25 05:45:41;;;;;;;8.10;5.03;;;;;;;;;;5052603;28;20103;-35
2021/12/25 05:48:07;;;;;;;8.20;4.70;;;;;;;;;;5052716;28;20059;-36
2021/12/25 05:50:33;;;;;;;6.80;4.63;;;;;;;;;;5052878;28;20032;-35
2021/12/25 05:52:59;;;;;;;9.57;5.28;;;;;;;;;;5053546;28;20078;-35
2021/12/25 05:55:25;;;;;;;6.38;4.53;;;;;;;;;;5056889;28;20020;-35
2021/12/25 05:57:52;;;;;;;7.43;4.70;;;;;;;;;;5056515;28;20036;-37
2021/12/25 06:00:18;;;;;;;6.75;4.72;;;;;;;;;;5056672;28;20029;-37
2021/12/25 06:02:45;;;;;;;6.28;4.80;;;;;;;;;;5056586;28;20068;-36
2021/12/25 06:05:10;;;;;;;5.85;4.40;;;;;;;;;;5056389;28;20018;-35
2021/12/25 06:07:36;;;;;;;6.43;4.35;;;;;;;;;;5056397;28;20024;-36
2021/12/25 06:10:06;;;;;;;6.85;4.20;;;;;;;;;;5056186;28;20024;-35
2021/12/25 06:12:32;;;;;;;5.30;4.05;;;;;;;;;;5056416;28;20207;-36
2021/12/25 06:15:01;;;;;;;5.47;4.35;;;;;;;;;;5055933;28;20802;-35
2021/12/25 06:17:26;;;;;;;5.95;4.28;;;;;;;;;;5056304;28;20029;-36
2021/12/25 06:19:52;;;;;;;6.70;4.93;;;;;;;;;;5056031;28;20043;-35
2021/12/25 06:22:18;;;;;;;10.02;4.70;;;;;;;;;;5056001;28;20104;-35
2021/12/25 06:24:49;;;;;;;6.53;4.38;;;;;;;;;;5056193;28;20021;-36
2021/12/25 06:27:16;;;;;;;6.93;4.85;;;;;;;;;;5055973;28;20029;-35
2021/12/25 06:29:42;;;;;;;8.75;5.03;;;;;;;;;;5056036;28;20056;-34
2021/12/25 06:32:08;;;;;;;6.00;4.65;;;;;;;;;;5056053;28;20385;-34
2021/12/25 06:34:33;;;;;;;8.43;4.93;;;;;;;;;;5055722;28;20387;-35
2021/12/25 06:36:59;;;;;;;6.63;4.30;;;;;;;;;;5055604;28;20027;-35
2021/12/25 06:39:25;;;;;;;7.22;4.70;;;;;;;;;;5055642;28;20025;-36
2021/12/25 06:41:51;;;;;;;6.57;4.63;;;;;;;;;;5055707;28;20040;-35
2021/12/25 06:44:17;;;;;;;6.65;4.68;;;;;;;;;;5055846;28;20591;-35
2021/12/25 06:46:44;;;;;;;8.05;4.70;;;;;;;;;;5055783;28;20082;-36
2021/12/25 06:49:09;;;;;;;10.27;5.38;;;;;;;;;;5055659;28;20029;-36
2021/12/25 06:51:35;;;;;;;8.48;4.68;;;;;;;;;;5055416;28;20111;-35
2021/12/25 06:54:02;;;;;;;8.07;5.03;;;;;;;;;;5055357;28;20397;-36
2021/12/25 06:56:28;;;;;;;8.25;4.80;;;;;;;;;;5055100;28;20025;-36
2021/12/25 06:58:54;;;;;;;7.18;4.97;;;;;;;;;;5055123;28;20052;-34
2021/12/25 07:01:20;;;;;;;9.07;5.45;;;;;;;;;;5054965;28;20072;-34
2021/12/25 07:03:45;;;;;;;7.13;4.88;;;;;;;;;;5054905;28;20025;-35
2021/12/25 07:06:11;;;;;;;10.07;4.70;;;;;;;;;;5054568;28;20041;-35
2021/12/25 07:08:36;;;;;;;7.47;5.35;;;;;;;;;;5055158;28;20021;-35
2021/12/25 07:11:02;;;;;;;7.60;5.25;;;;;;;;;;5054872;28;20477;-35
2021/12/25 07:13:28;;;;;;;8.32;5.20;;;;;;;;;;5054789;28;20082;-35
2021/12/25 07:15:54;;;;;;;8.90;5.72;;;;;;;;;;5054554;28;20049;-36
2021/12/25 07:18:19;;;;;;;5.43;3.75;;;;;;;;;;5054923;28;20025;-36
2021/12/25 07:20:48;;;;;;;5.75;3.50;;;;;;;;;;5054525;28;20029;-37
2021/12/25 07:23:17;;;;;;;6.05;4.18;;;;;;;;;;5054489;28;20025;-38
2021/12/25 07:25:43;;;;;;;6.63;4.18;;;;;;;;;;5054415;28;20029;-38
2021/12/25 07:28:08;;;;;;;4.97;3.50;;;;;;;;;;5054562;28;20027;-38
2021/12/25 07:30:34;;;;;;;5.63;3.78;;;;;;;;;;5036749;28;20083;-37
2021/12/25 07:33:00;;;;;;;4.43;3.78;;;;;;;;;;5054601;28;20091;-37
2021/12/25 07:35:27;;;;;;;4.75;3.47;;;;;;;;;;5054280;28;20031;-36
2021/12/25 07:37:53;;;;;;;5.10;3.47;;;;;;;;;;5054257;28;20057;-38
2021/12/25 07:40:18;;;;;;;5.03;3.47;;;;;;;;;;5054485;28;20059;-37
2021/12/25 07:42:44;;;;;;;5.68;3.88;;;;;;;;;;5054065;28;20497;-38
2021/12/25 07:45:11;;;;;;;5.43;3.47;;;;;;;;;;5036509;28;20017;-37
2021/12/25 07:47:40;;;;;;;4.72;3.70;;;;;;;;;;5054273;28;20412;-38
2021/12/25 07:50:09;;;;;;;5.28;4.00;;;;;;;;;;5054248;28;20029;-35
2021/12/25 07:52:34;;;;;;;4.68;3.40;;;;;;;;;;5054019;28;20029;-35
2021/12/25 07:55:00;;;;;;;4.63;3.42;;;;;;;;;;5053857;28;20099;-35
2021/12/25 07:57:25;;;;;;;4.13;3.00;;;;;;;;;;5054135;28;20029;-36
2021/12/25 07:59:51;;;;;;;5.50;3.15;;;;;;;;;;5053982;28;20045;-35
2021/12/25 08:02:16;;;;;;;5.78;3.50;;;;;;;;;;5054002;28;20025;-35
2021/12/25 08:04:42;;;;;;;4.80;2.90;;;;;;;;;;5054003;28;20103;-36
2021/12/25 08:07:08;;;;;;;6.55;3.63;;;;;;;;;;5053911;28;20461;-35
2021/12/25 08:09:35;;;;;;;4.88;3.40;;;;;;;;;;5053441;28;20555;-36
2021/12/25 08:12:02;;;;;;;6.07;3.75;;;;;;;;;;5053648;28;20521;-35
2021/12/25 08:14:29;;;;;;;4.82;3.60;;;;;;;;;;5053498;28;20064;-36
2021/12/25 08:16:56;;;;;;;5.13;3.50;;;;;;;;;;5052818;28;20115;-36
2021/12/25 08:19:23;;;;;;;4.15;3.17;;;;;;;;;;5053407;28;20025;-35
2021/12/25 08:21:49;;;;;;;3.67;3.10;;;;;;;;;;5053307;28;20025;-35
2021/12/25 08:24:16;;;;;;;4.90;3.80;;;;;;;;;;5053319;28;20025;-36
2021/12/25 08:26:43;;;;;;;4.88;3.58;;;;;;;;;;5053564;28;20074;-36
2021/12/25 08:29:08;;;;;;;4.47;3.65;;;;;;;;;;5053544;28;20370;-35
2021/12/25 08:31:34;;;;;;;5.30;3.92;;;;;;;;;;5053086;28;20112;-36
2021/12/25 08:34:00;;;;;;;4.45;3.72;;;;;;;;;;5053140;28;20100;-36
2021/12/25 08:36:25;;;;;;;4.35;3.55;;;;;;;;;;5053120;28;20025;-36
2021/12/25 08:38:51;;;;;;;5.60;3.72;;;;;;;;;;5053317;28;20485;-37
2021/12/25 08:41:16;;;;;;;4.00;3.25;;;;;;;;;;5052908;28;20031;-36
2021/12/25 08:43:47;;;;;;;4.28;3.42;;;;;;;;;;5053146;28;20029;-36
2021/12/25 08:46:18;;;;;;;5.50;3.75;;;;;;;;;;5052606;28;20488;-38
2021/12/25 08:48:53;;;;;;;3.65;3.20;;;;;;;;;;5069738;28;20395;-36
2021/12/25 08:51:18;;;;;;;3.65;3.00;;;;;;;;;;5069714;28;20477;-36
2021/12/25 08:53:44;;;;;;;3.58;3.00;;;;;;;;;;5069906;28;20024;-36
2021/12/25 08:56:10;;;;;;;3.85;2.97;;;;;;;;;;5069678;28;20055;-37
2021/12/25 08:58:37;;;;;;;3.92;3.47;;;;;;;;;;5069777;28;20021;-36
2021/12/25 09:01:06;;;;;;;3.35;3.05;;;;;;;;;;5068225;28;20032;-36
2021/12/25 09:03:32;;;;;;;3.63;3.20;;;;;;;;;;5069557;28;20025;-36
2021/12/25 09:06:01;;;;;;;3.08;2.78;;;;;;;;;;5069362;28;20017;-37
2021/12/25 09:08:27;;;;;;;3.45;3.15;;;;;;;;;;5068426;28;20029;-39
2021/12/25 09:10:53;;;;;;;3.70;2.97;;;;;;;;;;5069383;28;20465;-39
2021/12/25 09:13:19;;;;;;;3.33;2.85;;;;;;;;;;5069581;28;20039;-37
2021/12/25 09:15:45;;;;;;;3.50;2.70;;;;;;;;;;5069567;28;20025;-37
2021/12/25 09:18:11;;;;;;;4.30;2.60;;;;;;;;;;5069400;28;20457;-39
2021/12/25 09:20:37;;;;;;;4.00;2.58;;;;;;;;;;5069112;28;20501;-35
2021/12/25 09:23:03;;;;;;;3.10;2.22;;;;;;;;;;5068988;28;20059;-39
2021/12/25 09:25:29;;;;;;;3.42;2.55;;;;;;;;;;5068857;28;20021;-39
2021/12/25 09:27:54;;;;;;;2.55;2.08;;;;;;;;;;5069079;28;20135;-36
2021/12/25 09:30:21;;;;;;;3.72;2.22;;;;;;;;;;5069228;28;20044;-39
2021/12/25 09:32:47;;;;;;;2.72;1.98;;;;;;;;;;5069140;28;20415;-39
2021/12/25 09:35:13;;;;;;;3.05;2.00;;;;;;;;;;5068931;28;20052;-38
2021/12/25 09:37:39;;;;;;;2.88;2.38;;;;;;;;;;5068814;28;20429;-39
2021/12/25 09:40:08;;;;;;;2.75;2.30;;;;;;;;;;5069012;28;20452;-38
2021/12/25 09:42:34;;;;;;;3.55;2.20;;;;;;;;;;5068966;28;20124;-39
2021/12/25 09:45:00;;;;;;;3.28;2.35;;;;;;;;;;5069402;28;20028;-39
2021/12/25 09:47:27;;;;;;;4.93;2.60;;;;;;;;;;5067866;28;20041;-38
2021/12/25 09:49:53;;;;;;;4.30;3.20;;;;;;;;;;5069073;28;20025;-39
2021/12/25 09:52:19;;;;;;;5.45;4.30;;;;;;;;;;5069087;28;20025;-39
2021/12/25 09:54:45;;;;;;;6.10;5.15;;;;;;;;;;5069299;28;20100;-37
2021/12/25 09:57:13;;;;;;;9.10;5.63;;;;;;;;;;5068747;28;20110;-37
2021/12/25 09:59:38;;;;;;;7.70;5.70;;;;;;;;;;5059072;28;20025;-38
2021/12/25 10:02:13;;;;;;;10.82;6.22;;;;;;;;;;5056081;28;20024;-37
2021/12/25 10:04:42;;;;;;;11.18;7.07;;;;;;;;;;5055868;28;20037;-38
2021/12/25 10:07:22;;;;;;;13.80;7.40;;;;;;;;;;5055615;28;20036;-37
2021/12/25 10:10:07;;;;;;;13.60;8.45;;;;;;;;;;5056188;28;20051;-37
2021/12/25 10:12:40;;;;;;;12.30;8.90;;;;;;;;;;5055474;28;20037;-38
2021/12/25 10:15:08;;;;;;;13.75;9.50;;;;;;;;;;5055581;28;20065;-37
2021/12/25 10:17:34;;;;;;;16.10;10.23;;;;;;;;;;5055142;28;20036;-37
2021/12/25 10:20:03;;;;;;;16.88;10.27;;;;;;;;;;5055112;28;20036;-38
2021/12/25 10:22:29;;;;;;;15.18;9.98;;;;;;;;;;5055378;28;20098;-37
2021/12/25 10:25:15;;;;;;;15.63;9.93;;;;;;;;;;5055354;28;20456;-39
2021/12/25 10:27:53;;;;;;;15.98;9.27;;;;;;;;;;5054903;28;20044;-37
2021/12/25 10:30:19;;;;;;;10.95;7.70;;;;;;;;;;5055163;28;20052;-37
2021/12/25 10:32:45;;;;;;;13.80;8.45;;;;;;;;;;5054831;28;20108;-37
2021/12/25 10:35:23;;;;;;;14.60;9.55;;;;;;;;;;5055054;28;20060;-37
2021/12/25 10:37:50;;;;;;;14.23;10.05;;;;;;;;;;5054913;28;20090;-37
2021/12/25 10:40:28;;;;;;;19.95;12.73;;;;;;;;;;5054649;28;20113;-37
2021/12/25 10:43:00;;;;;;;16.67;11.45;;;;;;;;;;5054651;28;20394;-38
2021/12/25 10:45:28;;;;;;;18.35;11.35;;;;;;;;;;5054782;28;20033;-37
2021/12/25 10:48:10;;;;;;;19.35;11.68;;;;;;;;;;5054185;28;20048;-38
2021/12/25 10:50:42;;;;;;;18.15;11.32;;;;;;;;;;5054797;28;20025;-38
2021/12/25 10:53:23;;;;;;;19.55;11.00;;;;;;;;;;5054436;28;20025;-37
2021/12/25 10:55:48;;;;;;;;;;;;;;;;;;5055027;28;20075;-37
2021/12/25 10:58:19;;;;;;;14.88;10.00;;;;;;;;;;5054500;28;20356;-37
2021/12/25 11:00:50;;;;;;;16.60;8.45;;;;;;;;;;5054220;28;20108;-38
2021/12/25 11:03:16;;;;;;;12.93;6.97;;;;;;;;;;5054453;28;20028;-38
2021/12/25 11:05:47;;;;;;;9.30;5.47;;;;;;;;;;5054130;28;20431;-38
2021/12/25 11:08:15;;;;;;;7.38;4.78;;;;;;;;;;5054109;28;20067;-38
2021/12/25 11:10:48;;;;;;;5.95;4.20;;;;;;;;;;5053336;28;20029;-38
2021/12/25 11:13:30;;;;;;;5.97;4.50;;;;;;;;;;5053824;28;20097;-38
2021/12/25 11:16:07;;;;;;;4.70;3.28;;;;;;;;;;5053898;28;20040;-39
2021/12/25 11:19:00;;;;;;;6.72;4.07;;;;;;;;;;5053988;28;20040;-38
2021/12/25 11:21:27;;;;;;;5.35;3.50;;;;;;;;;;5053770;28;20021;-38
2021/12/25 11:24:04;;;;;;;8.27;3.30;;;;;;;;;;5053624;28;20477;-38
2021/12/25 11:26:31;;;;;;;5.20;3.72;;;;;;;;;;5053884;28;20104;-37
2021/12/25 11:28:57;;;;;;;7.97;4.25;;;;;;;;;;5053530;28;20537;-39
2021/12/25 11:31:22;;;;;;;7.47;5.10;;;;;;;;;;5053808;28;20033;-38
2021/12/25 11:33:48;;;;;;;10.55;6.38;;;;;;;;;;5053763;28;20526;-38
2021/12/25 11:36:14;;;;;;;8.90;5.95;;;;;;;;;;5053312;28;20488;-37
2021/12/25 11:38:39;;;;;;;9.00;5.57;;;;;;;;;;5053174;28;20032;-38
2021/12/25 11:41:07;;;;;;;7.38;4.38;;;;;;;;;;5053272;28;20372;-38
2021/12/25 11:43:45;;;;;;;10.23;3.90;;;;;;;;;;5053266;28;20425;-37
2021/12/25 11:46:14;;;;;;;4.22;3.15;;;;;;;;;;5053300;28;20025;-38
2021/12/25 11:48:40;;;;;;;4.40;2.35;;;;;;;;;;5052712;28;20049;-37
2021/12/25 11:51:07;;;;;;;5.00;2.60;;;;;;;;;;5053180;28;20032;-37
2021/12/25 11:53:45;;;;;;;3.22;2.55;;;;;;;;;;5052823;28;20028;-38
2021/12/25 11:56:28;;;;;;;3.35;2.97;;;;;;;;;;5052948;28;20468;-38
2021/12/25 11:58:56;;;;;;;3.90;2.85;;;;;;;;;;5053188;28;20064;-37
2021/12/25 12:01:42;;;;;;;5.93;3.30;;;;;;;;;;5052190;28;20032;-37
2021/12/25 12:04:10;;;;;;;8.90;3.80;;;;;;;;;;5051297;28;20377;-37
2021/12/25 12:06:45;;;;;;;5.75;3.60;;;;;;;;;;5051602;28;20138;-37
2021/12/25 12:09:12;;;;;;;5.60;3.42;;;;;;;;;;5051902;28;20464;-38
2021/12/25 12:11:41;;;;;;;7.30;4.07;;;;;;;;;;5052492;28;20029;-38
2021/12/25 12:14:28;;;;;;;10.70;4.68;;;;;;;;;;5052573;28;20017;-37
2021/12/25 12:17:00;;;;;;;8.57;4.93;;;;;;;;;;5052877;28;20037;-37
2021/12/25 12:21:59;;;;;;;9.02;5.40;;;;;;;;;;5052251;28;20028;-38
2021/12/25 12:27:03;;;;;;;10.73;5.53;;;;;;;;;;5052377;28;20104;-40
2021/12/25 12:29:56;;;;;;;8.48;5.47;;;;;;;;;;5052306;28;20461;-38
2021/12/25 12:32:23;;;;;;;10.82;7.05;;;;;;;;;;5039378;28;20060;-40
2021/12/25 12:34:51;;;;;;;15.93;6.90;;;;;;;;;;5032344;28;20560;-39
2021/12/25 12:37:16;;;;;;;12.40;7.47;;;;;;;;;;5032258;28;20045;-40
2021/12/25 12:39:54;;;;;;;11.40;7.85;;;;;;;;;;5031970;28;20030;-39
2021/12/25 12:42:22;;;;;;;12.73;7.20;;;;;;;;;;5032637;28;20029;-42
2021/12/25 12:44:49;;;;;;;15.55;8.73;;;;;;;;;;5032326;28;20051;-40
2021/12/25 12:47:19;;;;;;;14.80;9.10;;;;;;;;;;5031683;28;20501;-39
2021/12/25 12:49:50;;;;;;;18.65;8.35;;;;;;;;;;5032566;28;20083;-39
2021/12/25 12:52:25;;;;;;;14.10;8.85;;;;;;;;;;5032287;28;20036;-38
2021/12/25 12:54:57;;;;;;;10.68;6.80;;;;;;;;;;5031970;28;20581;-36
2021/12/25 12:57:32;;;;;;;12.80;5.95;;;;;;;;;;5032304;28;20036;-37
2021/12/25 12:59:57;;;;;;;6.75;5.20;;;;;;;;;;5031666;28;20136;-37
2021/12/25 13:02:26;;;;;;;8.60;5.47;;;;;;;;;;5031571;28;20481;-37
2021/12/25 13:04:56;;;;;;;10.35;5.40;;;;;;;;;;5032219;28;20056;-37
2021/12/25 13:07:23;;;;;;;10.93;5.00;;;;;;;;;;5032221;28;20052;-37
2021/12/25 13:10:25;;;;;;;10.75;5.03;;;;;;;;;;5031616;28;20045;-38
2021/12/25 13:12:56;;;;;;;11.50;5.40;;;;;;;;;;5031758;28;20032;-37
2021/12/25 13:15:27;;;;;;;10.40;5.10;;;;;;;;;;5032076;28;20425;-38
2021/12/25 13:17:54;;;;;;;8.18;4.68;;;;;;;;;;5032027;28;20481;-37
2021/12/25 13:20:33;;;;;;;7.30;4.40;;;;;;;;;;5032212;28;20061;-38
2021/12/25 13:23:01;;;;;;;6.80;4.50;;;;;;;;;;5029960;28;20428;-36
2021/12/25 13:25:26;;;;;;;8.65;5.18;;;;;;;;;;5031880;28;20082;-38
2021/12/25 13:28:01;;;;;;;5.78;3.85;;;;;;;;;;5031809;28;20112;-38
2021/12/25 13:30:30;;;;;;;7.53;4.50;;;;;;;;;;5030394;28;20100;-38
2021/12/25 13:33:09;;;;;;;6.68;3.97;;;;;;;;;;5031786;28;20033;-39
2021/12/25 13:35:35;;;;;;;5.50;4.10;;;;;;;;;;5035279;28;20030;-38
2021/12/25 13:38:02;;;;;;;6.35;4.10;;;;;;;;;;5035547;28;20025;-38
2021/12/25 13:40:28;;;;;;;6.50;4.05;;;;;;;;;;5035202;28;20036;-38
2021/12/25 13:42:55;;;;;;;6.35;4.38;;;;;;;;;;5035483;28;20109;-38
2021/12/25 13:45:21;;;;;;;5.88;3.63;;;;;;;;;;5035441;28;20021;-39
2021/12/25 13:47:48;;;;;;;8.10;4.93;;;;;;;;;;5035480;28;20509;-39
2021/12/25 13:50:14;;;;;;;6.65;4.68;;;;;;;;;;5036020;28;20415;-39
2021/12/25 13:52:49;;;;;;;4.90;3.90;;;;;;;;;;5035937;28;20029;-39
2021/12/25 13:55:19;;;;;;;10.10;4.43;;;;;;;;;;5035899;28;20576;-38
2021/12/25 13:57:48;;;;;;;9.82;4.13;;;;;;;;;;5036088;28;20021;-38
2021/12/25 14:00:20;;;;;;;6.65;4.72;;;;;;;;;;5033792;28;20608;-39
2021/12/25 14:02:52;;;;;;;8.93;4.43;;;;;;;;;;5032219;28;20036;-37
2021/12/25 14:05:22;;;;;;;7.68;3.92;;;;;;;;;;5034192;28;20398;-39
2021/12/25 14:07:49;;;;;;;8.52;4.43;;;;;;;;;;5033696;28;20033;-38
2021/12/25 14:10:18;;;;;;;6.60;4.10;;;;;;;;;;5033637;28;20564;-36
2021/12/25 14:12:49;;;;;;;13.32;4.90;;;;;;;;;;5034017;28;20064;-39
2021/12/25 14:15:18;;;;;;;8.15;4.22;;;;;;;;;;5033878;28;20040;-38
2021/12/25 14:17:45;;;;;;;6.40;4.13;;;;;;;;;;5033415;28;20029;-40
2021/12/25 14:20:12;;;;;;;6.75;4.47;;;;;;;;;;5033694;28;20493;-38
2021/12/25 14:22:39;;;;;;;9.48;5.18;;;;;;;;;;5033659;28;20029;-36
2021/12/25 14:25:07;;;;;;;10.00;4.40;;;;;;;;;;5033328;28;20032;-37
2021/12/25 14:27:32;;;;;;;8.02;4.90;;;;;;;;;;5033652;28;20029;-37
2021/12/25 14:30:13;;;;;;;12.60;5.50;;;;;;;;;;5033274;28;20379;-37
2021/12/25 14:32:47;;;;;;;15.50;5.78;;;;;;;;;;5033614;28;20032;-37
2021/12/25 14:35:16;;;;;;;11.93;5.68;;;;;;;;;;5033371;28;20045;-38
2021/12/25 14:37:43;;;;;;;10.27;5.88;;;;;;;;;;5032036;28;20025;-37
2021/12/25 14:40:10;;;;;;;10.93;5.80;;;;;;;;;;5033480;28;20056;-37
2021/12/25 14:42:53;;;;;;;8.98;5.30;;;;;;;;;;5033508;28;20036;-39
2021/12/25 14:45:21;;;;;;;11.98;6.60;;;;;;;;;;5032424;28;20385;-37
2021/12/25 14:47:53;;;;;;;14.05;9.30;;;;;;;;;;5032883;28;20056;-38
2021/12/25 14:50:32;;;;;;;19.88;11.02;;;;;;;;;;5032970;28;20033;-38
2021/12/25 14:53:08;;;;;;;19.83;10.00;;;;;;;;;;5032418;28;20036;-38
2021/12/25 14:55:56;;;;;;;19.35;9.27;;;;;;;;;;5032809;28;20060;-37
2021/12/25 14:58:28;;;;;;;20.60;10.00;;;;;;;;;;5034032;28;20101;-38
2021/12/25 15:01:18;;;;;;;23.90;13.73;;;;;;;;;;5033571;28;20167;-37
2021/12/25 15:03:45;;;;;;;;;;;;;;;;;;5031274;28;20113;-37
2021/12/25 15:06:19;;;;;;;22.70;12.15;;;;;;;;;;5033704;28;20365;-37
2021/12/25 15:08:45;;;;;;;15.98;9.73;;;;;;;;;;5033907;28;20033;-37
2021/12/25 15:11:14;;;;;;;16.00;9.80;;;;;;;;;;5034377;28;20553;-35
2021/12/25 15:13:41;;;;;;;11.95;8.27;;;;;;;;;;5034032;28;20017;-35
2021/12/25 15:16:08;;;;;;;11.85;7.95;;;;;;;;;;5033188;28;20374;-36
2021/12/25 15:18:37;;;;;;;12.65;7.85;;;;;;;;;;5033922;28;20029;-36
2021/12/25 15:21:03;;;;;;;14.07;8.00;;;;;;;;;;5034040;28;20026;-36
2021/12/25 15:23:31;;;;;;;13.88;7.45;;;;;;;;;;5033396;28;20025;-36
2021/12/25 15:26:10;;;;;;;12.73;7.50;;;;;;;;;;5033616;28;20091;-36
2021/12/25 15:28:37;;;;;;;13.25;8.10;;;;;;;;;;5033474;28;20029;-36
2021/12/25 15:31:20;;;;;;;11.82;8.00;;;;;;;;;;5032999;28;20025;-36
2021/12/25 15:33:49;;;;;;;13.45;7.65;;;;;;;;;;5033514;28;20032;-36
2021/12/25 15:36:16;;;;;;;13.63;7.60;;;;;;;;;;5033161;28;20033;-38
2021/12/25 15:38:41;;;;;;;12.73;7.47;;;;;;;;;;5032143;28;20148;-38
2021/12/25 15:41:08;;;;;;;12.68;7.65;;;;;;;;;;5031765;28;20041;-38
2021/12/25 15:43:33;;;;;;;10.32;7.07;;;;;;;;;;5031435;28;20029;-38
2021/12/25 15:46:03;;;;;;;10.20;6.85;;;;;;;;;;5031359;28;20575;-38
2021/12/25 15:48:30;;;;;;;9.82;6.35;;;;;;;;;;5031418;28;20666;-38
2021/12/25 15:50:56;;;;;;;11.05;6.60;;;;;;;;;;5031818;28;20034;-39
2021/12/25 15:53:21;;;;;;;8.10;6.07;;;;;;;;;;5031103;28;20072;-37
2021/12/25 15:55:47;;;;;;;10.55;6.65;;;;;;;;;;5031414;28;20504;-37
2021/12/25 15:58:14;;;;;;;12.23;6.82;;;;;;;;;;5031133;28;20056;-40
2021/12/25 16:00:42;;;;;;;10.13;6.28;;;;;;;;;;5031215;28;20478;-38
2021/12/25 16:03:09;;;;;;;10.20;6.38;;;;;;;;;;5032772;28;20392;-38
2021/12/25 16:05:34;;;;;;;9.73;6.63;;;;;;;;;;5033056;28;20030;-37